createdAt,value
2023-10-22T00:00:27.801Z,100077.81
2023-10-22T00:02:55.532Z,100087.38
2023-10-22T00:05:23.646Z,100086.03
2023-10-22T00:07:51.702Z,100088.19
2023-10-22T00:10:19.346Z,100082.84
2023-10-22T00:12:47.088Z,100096.72
2023-10-22T00:15:15.721Z,100099.38
2023-10-22T00:17:43.931Z,100100.53
2023-10-22T00:20:12.252Z,100108.63
2023-10-22T00:22:40.799Z,100100.91
2023-10-22T00:25:09.101Z,100112.78
2023-10-22T00:27:37.152Z,100116.13
2023-10-22T00:30:06.785Z,100117.94
2023-10-22T00:32:35.640Z,100131.59
2023-10-22T00:35:03.333Z,100132.25
2023-10-22T00:37:30.981Z,100130.06
2023-10-22T00:39:58.859Z,100130.38
2023-10-22T00:42:26.396Z,100136.16
2023-10-22T00:44:54.265Z,100132.72
2023-10-22T00:47:22.008Z,100140.75
2023-10-22T00:49:50.204Z,100142.13
2023-10-22T00:52:18.059Z,100140.50
2023-10-22T00:54:47.474Z,100136.28
2023-10-22T00:57:16.762Z,100144.94
2023-10-22T00:59:44.812Z,100146.59
2023-10-22T01:02:13.348Z,100146.19
2023-10-22T01:04:41.398Z,100147.53
2023-10-22T01:07:09.532Z,100147.81
2023-10-22T01:09:37.103Z,100159.53
2023-10-22T01:12:06.525Z,100160.38
2023-10-22T01:14:35.055Z,100156.97
2023-10-22T01:17:03.526Z,100162.16
2023-10-22T01:19:31.381Z,100152.75
2023-10-22T01:21:59.100Z,100166.28
2023-10-22T01:24:26.839Z,100162.56
2023-10-22T01:26:54.557Z,100164.88
2023-10-22T01:29:23.077Z,100165.50
2023-10-22T01:31:50.694Z,100170.75
2023-10-22T01:34:18.317Z,100169.38
2023-10-22T01:36:46.617Z,100169.34
2023-10-22T01:39:16.454Z,100170.72
2023-10-22T01:41:44.572Z,100176.63
2023-10-22T01:44:12.320Z,100181.78
2023-10-22T01:46:40.176Z,100179.13
2023-10-22T01:49:08.410Z,100187.72
2023-10-22T01:51:36.155Z,100192.75
2023-10-22T01:54:03.864Z,100197.75
2023-10-22T01:56:32.195Z,100191.91
2023-10-22T01:58:59.822Z,100199.28
2023-10-22T02:01:28.411Z,100195.66
2023-10-22T02:03:57.363Z,100200.44
2023-10-22T02:06:25.577Z,100202.81
2023-10-22T02:08:53.670Z,100204.50
2023-10-22T02:11:21.454Z,100216.38
2023-10-22T02:13:49.404Z,100215.50
2023-10-22T02:16:17.146Z,100208.50
2023-10-22T02:18:46.753Z,100212.25
2023-10-22T02:21:14.509Z,100210.16
2023-10-22T02:23:42.671Z,100222.31
2023-10-22T02:26:10.824Z,100225.22
2023-10-22T02:28:38.523Z,100228.91
2023-10-22T02:31:06.692Z,100228.41
2023-10-22T02:33:35.039Z,100223.47
2023-10-22T02:36:05.319Z,100223.25
2023-10-22T02:38:37.112Z,100222.91
2023-10-22T02:41:04.749Z,100234.25
2023-10-22T02:43:32.563Z,100238.28
2023-10-22T02:46:00.287Z,100240.50
2023-10-22T02:48:28.058Z,100231.88
2023-10-22T02:50:56.389Z,100230.84
2023-10-22T02:53:23.992Z,100228.81
2023-10-22T02:56:01.282Z,100232.19
2023-10-22T02:58:32.048Z,100239.66
2023-10-22T03:01:06.814Z,100242.50
2023-10-22T03:03:42.115Z,100237.53
2023-10-22T03:06:11.667Z,100233.72
2023-10-22T03:08:41.657Z,100232.66
2023-10-22T03:11:17.619Z,100230.56
2023-10-22T03:13:46.287Z,100229.91
2023-10-22T03:16:16.355Z,100242.56
2023-10-22T03:18:46.120Z,100250.41
2023-10-22T03:21:16.083Z,100247.75
2023-10-22T03:23:49.033Z,100247.38
2023-10-22T03:26:20.422Z,100254.84
2023-10-22T03:28:48.750Z,100255.69
2023-10-22T03:31:16.508Z,100262.50
2023-10-22T03:33:44.597Z,100254.44
2023-10-22T03:36:15.838Z,100266.69
2023-10-22T03:38:45.082Z,100264.94
2023-10-22T03:41:13.008Z,100266.06
2023-10-22T03:43:40.586Z,100262.69
2023-10-22T03:46:08.230Z,100275.63
2023-10-22T03:48:36.157Z,100280.63
2023-10-22T03:51:04.630Z,100280.91
2023-10-22T03:53:33.018Z,100278.53
2023-10-22T03:56:01.603Z,100276.72
2023-10-22T03:58:29.178Z,100285.47
2023-10-22T04:00:56.791Z,100282.56
2023-10-22T04:03:24.677Z,100290.19
2023-10-22T04:05:57.397Z,100291.03
2023-10-22T04:08:26.421Z,100293.69
2023-10-22T04:10:55.083Z,100300.66
2023-10-22T04:13:23.806Z,100297.16
2023-10-22T04:15:52.995Z,100299.97
2023-10-22T04:18:21.011Z,100303.59
2023-10-22T04:20:49.387Z,100300.25
2023-10-22T04:23:17.175Z,100313.19
2023-10-22T04:25:46.820Z,100313.84
2023-10-22T04:28:15.321Z,100319.84
2023-10-22T04:30:47.618Z,100321.94
2023-10-22T04:33:15.610Z,100319.69
2023-10-22T04:35:43.735Z,100313.59
2023-10-22T04:38:11.772Z,100326.91
2023-10-22T04:40:39.912Z,100334.00
2023-10-22T04:43:07.669Z,100326.91
2023-10-22T04:45:35.258Z,100324.97
2023-10-22T04:48:03.080Z,100332.34
2023-10-22T04:50:31.622Z,100339.84
2023-10-22T04:52:59.344Z,100342.50
2023-10-22T04:55:27.164Z,100348.59
2023-10-22T04:57:56.191Z,100355.13
2023-10-22T05:00:24.787Z,100352.91
2023-10-22T05:02:52.940Z,100363.75
2023-10-22T05:05:22.388Z,100365.69
2023-10-22T05:07:53.040Z,100376.53
2023-10-22T05:10:21.510Z,100372.91
2023-10-22T05:12:49.206Z,100373.75
2023-10-22T05:15:17.510Z,100376.91
2023-10-22T05:17:45.881Z,100374.16
2023-10-22T05:20:13.885Z,100373.31
2023-10-22T05:22:41.460Z,100385.53
2023-10-22T05:25:09.541Z,100384.00
2023-10-22T05:27:37.158Z,100384.94
2023-10-22T05:30:05.694Z,100382.47
2023-10-22T05:32:33.717Z,100384.69
2023-10-22T05:35:05.123Z,100382.06
2023-10-22T05:37:32.838Z,100389.09
2023-10-22T05:40:01.215Z,100388.72
2023-10-22T05:42:28.905Z,100395.66
2023-10-22T05:44:57.282Z,100409.72
2023-10-22T05:47:24.878Z,100405.28
2023-10-22T05:49:52.437Z,100412.69
2023-10-22T05:52:20.194Z,100410.72
2023-10-22T05:54:47.763Z,100408.63
2023-10-22T05:57:15.319Z,100407.78
2023-10-22T05:59:43.376Z,100419.31
2023-10-22T06:02:11.072Z,100419.19
2023-10-22T06:04:39.184Z,100422.25
2023-10-22T06:07:08.712Z,100428.09
2023-10-22T06:09:36.992Z,100430.00
2023-10-22T06:12:05.166Z,100433.94
2023-10-22T06:14:33.863Z,100438.78
2023-10-22T06:17:01.511Z,100442.03
2023-10-22T06:19:29.445Z,100443.41
2023-10-22T06:21:56.998Z,100453.00
2023-10-22T06:24:24.629Z,100449.03
2023-10-22T06:26:52.180Z,100452.63
2023-10-22T06:29:19.707Z,100458.75
2023-10-22T06:31:47.300Z,100469.31
2023-10-22T06:34:15.058Z,100468.19
2023-10-22T06:36:45.455Z,100467.75
2023-10-22T06:39:13.424Z,100472.34
2023-10-22T06:41:42.410Z,100468.25
2023-10-22T06:44:10.542Z,100474.22
2023-10-22T06:46:38.148Z,100480.22
2023-10-22T06:49:05.799Z,100482.94
2023-10-22T06:51:33.844Z,100478.69
2023-10-22T06:54:02.071Z,100489.91
2023-10-22T06:56:30.107Z,100495.16
2023-10-22T06:58:57.944Z,100491.09
2023-10-22T07:01:25.659Z,100499.97
2023-10-22T07:03:53.262Z,100508.16
2023-10-22T07:06:21.793Z,100512.16
2023-10-22T07:08:50.238Z,100518.59
2023-10-22T07:11:17.785Z,100529.06
2023-10-22T07:13:46.456Z,100535.97
2023-10-22T07:16:14.366Z,100537.84
2023-10-22T07:18:42.181Z,100542.41
2023-10-22T07:21:10.391Z,100540.66
2023-10-22T07:23:38.138Z,100542.88
2023-10-22T07:26:05.729Z,100550.16
2023-10-22T07:28:33.582Z,100551.56
2023-10-22T07:31:01.209Z,100556.81
2023-10-22T07:33:29.372Z,100551.72
2023-10-22T07:35:58.921Z,100550.59
2023-10-22T07:38:33.912Z,100550.31
2023-10-22T07:41:02.515Z,100558.00
2023-10-22T07:43:30.770Z,100553.16
2023-10-22T07:46:02.294Z,100559.31
2023-10-22T07:48:30.608Z,100554.06
2023-10-22T07:51:12.925Z,100553.13
2023-10-22T07:53:40.924Z,100549.63
2023-10-22T07:56:10.301Z,100556.31
2023-10-22T07:58:39.389Z,100557.81
2023-10-22T08:01:08.246Z,100563.47
2023-10-22T08:03:36.493Z,100564.50
2023-10-22T08:06:06.146Z,100563.69
2023-10-22T08:08:34.529Z,100569.31
2023-10-22T08:11:04.668Z,100565.63
2023-10-22T08:13:32.328Z,100580.22
2023-10-22T08:16:03.937Z,100575.31
2023-10-22T08:18:32.287Z,100569.31
2023-10-22T08:21:05.649Z,100570.00
2023-10-22T08:23:33.795Z,100578.63
2023-10-22T08:26:01.634Z,100577.97
2023-10-22T08:28:29.437Z,100587.28
2023-10-22T08:30:57.073Z,100591.63
2023-10-22T08:33:25.135Z,100593.56
2023-10-22T08:35:53.659Z,100596.63
2023-10-22T08:38:21.415Z,100595.13
2023-10-22T08:40:51.626Z,100598.78
2023-10-22T08:43:20.244Z,100601.03
2023-10-22T08:45:49.993Z,100601.56
2023-10-22T08:48:19.489Z,100592.75
2023-10-22T08:50:50.474Z,100592.53
2023-10-22T08:53:18.527Z,100592.13
2023-10-22T08:55:49.357Z,100586.50
2023-10-22T08:58:19.809Z,100592.19
2023-10-22T09:00:49.905Z,100591.41
2023-10-22T09:03:20.455Z,100593.25
2023-10-22T09:05:49.659Z,100591.50
2023-10-22T09:08:17.613Z,100602.53
2023-10-22T09:10:45.426Z,100603.09
2023-10-22T09:13:16.820Z,100598.59
2023-10-22T09:15:46.847Z,100592.44
2023-10-22T09:18:16.305Z,100597.78
2023-10-22T09:20:49.817Z,100606.13
2023-10-22T09:23:20.927Z,100600.44
2023-10-22T09:25:53.940Z,100599.31
2023-10-22T09:28:25.759Z,100604.97
2023-10-22T09:30:58.968Z,100601.72
2023-10-22T09:33:41.509Z,100604.56
2023-10-22T09:36:10.784Z,100601.88
2023-10-22T09:38:42.565Z,100609.31
2023-10-22T09:41:19.977Z,100604.25
2023-10-22T09:43:48.065Z,100604.25
2023-10-22T09:46:16.562Z,100592.38
2023-10-22T09:48:45.625Z,100594.56
2023-10-22T09:51:15.747Z,100601.47
2023-10-22T09:53:53.846Z,100595.06
2023-10-22T09:56:23.302Z,100599.25
2023-10-22T09:58:59.767Z,100603.34
2023-10-22T10:01:32.222Z,100603.63
2023-10-22T10:04:01.212Z,100604.13
2023-10-22T10:06:31.045Z,100608.66
2023-10-22T10:09:04.497Z,100618.19
2023-10-22T10:11:33.933Z,100601.09
2023-10-22T10:14:14.542Z,100604.59
2023-10-22T10:16:46.317Z,100596.41
2023-10-22T10:19:22.682Z,100600.34
2023-10-22T10:21:52.383Z,100605.66
2023-10-22T10:24:24.912Z,100603.66
2023-10-22T10:26:58.545Z,100605.66
2023-10-22T10:29:35.386Z,100604.25
2023-10-22T10:32:15.930Z,100607.00
2023-10-22T10:34:46.765Z,100607.84
2023-10-22T10:37:19.632Z,100596.34
2023-10-22T10:39:53.037Z,100599.69
2023-10-22T10:42:30.512Z,100606.31
2023-10-22T10:45:04.258Z,100617.56
2023-10-22T10:47:36.143Z,100611.50
2023-10-22T10:50:18.521Z,100609.31
2023-10-22T10:52:59.139Z,100606.69
2023-10-22T10:55:31.994Z,100615.75
2023-10-22T10:58:01.798Z,100611.97
2023-10-22T11:00:32.064Z,100608.66
2023-10-22T11:03:03.060Z,100617.22
2023-10-22T11:05:41.038Z,100620.31
2023-10-22T11:08:21.689Z,100618.22
2023-10-22T11:10:52.008Z,100615.19
2023-10-22T11:13:27.815Z,100618.22
2023-10-22T11:16:05.263Z,100605.78
2023-10-22T11:18:33.017Z,100611.88
2023-10-22T11:21:01.651Z,100616.47
2023-10-22T11:23:29.889Z,100609.84
2023-10-22T11:25:58.000Z,100615.16
2023-10-22T11:28:25.862Z,100615.50
2023-10-22T11:30:56.183Z,100609.81
2023-10-22T11:33:33.396Z,100608.63
2023-10-22T11:36:01.776Z,100604.88
2023-10-22T11:38:29.975Z,100609.16
2023-10-22T11:41:04.889Z,100610.81
2023-10-22T11:43:32.927Z,100609.09
2023-10-22T11:46:01.753Z,100611.53
2023-10-22T11:48:29.379Z,100602.59
2023-10-22T11:50:59.570Z,100598.91
2023-10-22T11:53:46.405Z,100611.47
2023-10-22T11:56:14.112Z,100606.91
2023-10-22T11:58:41.729Z,100605.28
2023-10-22T12:01:09.330Z,100607.47
2023-10-22T12:03:36.967Z,100602.50
2023-10-22T12:06:05.237Z,100595.09
2023-10-22T12:08:33.293Z,100593.13
2023-10-22T12:11:00.856Z,100595.41
2023-10-22T12:13:29.036Z,100598.41
2023-10-22T12:15:56.626Z,100598.03
2023-10-22T12:18:25.002Z,100593.66
2023-10-22T12:20:53.143Z,100595.16
2023-10-22T12:23:22.912Z,100603.25
2023-10-22T12:25:50.916Z,100608.72
2023-10-22T12:28:19.070Z,100602.03
2023-10-22T12:30:46.726Z,100604.91
2023-10-22T12:33:14.803Z,100609.13
2023-10-22T12:35:42.455Z,100605.50
2023-10-22T12:38:10.141Z,100602.19
2023-10-22T12:40:38.039Z,100595.06
2023-10-22T12:43:06.468Z,100605.88
2023-10-22T12:45:40.115Z,100604.78
2023-10-22T12:48:08.313Z,100622.53
2023-10-22T12:50:36.375Z,100616.81
2023-10-22T12:53:05.766Z,100606.81
2023-10-22T12:55:33.424Z,100609.00
2023-10-22T12:58:01.543Z,100612.50
2023-10-22T13:00:29.315Z,100608.78
2023-10-22T13:02:57.107Z,100621.09
2023-10-22T13:05:24.841Z,100617.88
2023-10-22T13:07:52.425Z,100618.13
2023-10-22T13:10:19.995Z,100624.56
2023-10-22T13:13:02.225Z,100628.09
2023-10-22T13:15:34.231Z,100621.66
2023-10-22T13:18:02.059Z,100628.25
2023-10-22T13:20:29.645Z,100626.78
2023-10-22T13:22:57.692Z,100619.63
2023-10-22T13:25:25.863Z,100631.84
2023-10-22T13:27:53.649Z,100622.47
2023-10-22T13:30:21.717Z,100628.09
2023-10-22T13:32:49.757Z,100623.78
2023-10-22T13:35:17.372Z,100624.94
2023-10-22T13:37:45.414Z,100630.41
2023-10-22T13:40:13.163Z,100631.84
2023-10-22T13:42:41.237Z,100637.38
2023-10-22T13:45:10.574Z,100637.59
2023-10-22T13:47:38.755Z,100637.28
2023-10-22T13:50:10.285Z,100639.97
2023-10-22T13:52:38.083Z,100642.31
2023-10-22T13:55:06.108Z,100647.56
2023-10-22T13:57:33.723Z,100650.13
2023-10-22T14:00:01.868Z,100649.50
2023-10-22T14:02:37.299Z,100656.94
2023-10-22T14:05:13.170Z,100652.00
2023-10-22T14:07:42.079Z,100656.66
2023-10-22T14:10:10.552Z,100651.78
2023-10-22T14:12:38.957Z,100660.00
2023-10-22T14:15:08.966Z,100660.78
2023-10-22T14:17:36.664Z,100661.47
2023-10-22T14:20:04.592Z,100657.22
2023-10-22T14:22:32.241Z,100664.38
2023-10-22T14:25:00.473Z,100666.25
2023-10-22T14:27:28.548Z,100665.75
2023-10-22T14:29:56.773Z,100668.03
2023-10-22T14:32:24.811Z,100664.50
2023-10-22T14:34:57.502Z,100666.19
2023-10-22T14:37:25.850Z,100668.25
2023-10-22T14:39:53.982Z,100673.25
2023-10-22T14:42:21.666Z,100669.44
2023-10-22T14:44:49.850Z,100673.22
2023-10-22T14:47:17.874Z,100673.66
2023-10-22T14:49:45.952Z,100676.31
2023-10-22T14:52:13.991Z,100664.78
2023-10-22T14:54:42.018Z,100680.06
2023-10-22T14:57:10.684Z,100680.34
2023-10-22T14:59:38.511Z,100675.78
2023-10-22T15:02:06.282Z,100676.25
2023-10-22T15:04:37.582Z,100684.97
2023-10-22T15:07:05.331Z,100677.97
2023-10-22T15:09:33.042Z,100688.38
2023-10-22T15:12:00.630Z,100697.75
2023-10-22T15:14:28.238Z,100698.75
2023-10-22T15:16:55.922Z,100702.72
2023-10-22T15:19:23.929Z,100700.16
2023-10-22T15:21:51.883Z,100699.03
2023-10-22T15:24:19.895Z,100695.13
2023-10-22T15:26:49.108Z,100706.53
2023-10-22T15:29:16.686Z,100696.25
2023-10-22T15:31:44.829Z,100698.69
2023-10-22T15:34:13.523Z,100705.59
2023-10-22T15:36:41.152Z,100705.06
2023-10-22T15:39:09.297Z,100710.59
2023-10-22T15:41:37.136Z,100714.34
2023-10-22T15:44:04.866Z,100714.44
2023-10-22T15:46:33.054Z,100715.03
2023-10-22T15:49:01.087Z,100711.66
2023-10-22T15:51:31.254Z,100709.19
2023-10-22T15:53:59.552Z,100710.69
2023-10-22T15:56:27.300Z,100712.75
2023-10-22T15:58:55.057Z,100718.56
2023-10-22T16:01:24.042Z,100723.91
2023-10-22T16:03:51.846Z,100730.06
2023-10-22T16:06:20.081Z,100725.78
2023-10-22T16:08:48.606Z,100726.97
2023-10-22T16:11:17.011Z,100726.16
2023-10-22T16:13:44.892Z,100730.66
2023-10-22T16:16:13.010Z,100727.78
2023-10-22T16:18:40.665Z,100733.34
2023-10-22T16:21:09.766Z,100740.06
2023-10-22T16:23:39.369Z,100742.59
2023-10-22T16:26:07.569Z,100739.28
2023-10-22T16:28:35.662Z,100745.63
2023-10-22T16:31:04.653Z,100745.47
2023-10-22T16:33:33.262Z,100746.28
2023-10-22T16:36:11.149Z,100752.91
2023-10-22T16:38:42.631Z,100753.06
2023-10-22T16:41:10.381Z,100759.09
2023-10-22T16:43:39.131Z,100760.09
2023-10-22T16:46:06.812Z,100762.94
2023-10-22T16:48:34.532Z,100760.09
2023-10-22T16:51:06.148Z,100761.00
2023-10-22T16:53:34.252Z,100764.81
2023-10-22T16:56:05.837Z,100760.63
2023-10-22T16:58:33.931Z,100768.00
2023-10-22T17:01:03.798Z,100773.50
2023-10-22T17:03:32.488Z,100772.66
2023-10-22T17:06:01.271Z,100776.50
2023-10-22T17:08:29.915Z,100779.66
2023-10-22T17:10:58.080Z,100781.13
2023-10-22T17:13:26.364Z,100783.28
2023-10-22T17:15:54.122Z,100787.47
2023-10-22T17:18:22.404Z,100780.47
2023-10-22T17:20:50.494Z,100777.47
2023-10-22T17:23:18.235Z,100781.47
2023-10-22T17:25:50.576Z,100795.16
2023-10-22T17:28:19.328Z,100791.47
2023-10-22T17:30:48.384Z,100793.13
2023-10-22T17:33:16.567Z,100797.97
2023-10-22T17:35:56.121Z,100798.59
2023-10-22T17:38:25.093Z,100815.94
2023-10-22T17:40:57.978Z,100803.09
2023-10-22T17:43:28.964Z,100821.06
2023-10-22T17:45:57.211Z,100816.44
2023-10-22T17:48:25.174Z,100821.00
2023-10-22T17:51:12.394Z,100822.59
2023-10-22T17:53:40.090Z,100823.66
2023-10-22T17:56:10.547Z,100830.19
2023-10-22T17:58:39.957Z,100826.22
2023-10-22T18:01:08.288Z,100824.28
2023-10-22T18:03:38.149Z,100840.22
2023-10-22T18:06:08.076Z,100830.25
2023-10-22T18:08:36.462Z,100841.22
2023-10-22T18:11:04.903Z,100837.97
2023-10-22T18:13:33.082Z,100832.56
2023-10-22T18:16:01.219Z,100841.63
2023-10-22T18:18:28.956Z,100845.25
2023-10-22T18:21:03.118Z,100842.19
2023-10-22T18:23:31.170Z,100844.78
2023-10-22T18:26:00.877Z,100844.56
2023-10-22T18:28:29.526Z,100843.28
2023-10-22T18:30:57.557Z,100850.75
2023-10-22T18:33:25.936Z,100854.00
2023-10-22T18:35:55.902Z,100849.06
2023-10-22T18:38:23.864Z,100851.72
2023-10-22T18:40:51.819Z,100859.09
2023-10-22T18:43:20.149Z,100861.19
2023-10-22T18:45:49.513Z,100867.91
2023-10-22T18:48:19.272Z,100869.53
2023-10-22T18:51:03.206Z,100874.50
2023-10-22T18:53:30.800Z,100882.97
2023-10-22T18:56:01.104Z,100873.03
2023-10-22T18:58:29.106Z,100875.78
2023-10-22T19:00:57.187Z,100883.56
2023-10-22T19:03:26.033Z,100877.53
2023-10-22T19:05:53.946Z,100878.16
2023-10-22T19:08:22.130Z,100882.28
2023-10-22T19:10:50.267Z,100882.22
2023-10-22T19:13:18.038Z,100882.63
2023-10-22T19:15:45.896Z,100881.88
2023-10-22T19:18:14.385Z,100891.88
2023-10-22T19:20:42.872Z,100889.53
2023-10-22T19:23:15.230Z,100891.59
2023-10-22T19:25:42.778Z,100896.22
2023-10-22T19:28:10.993Z,100904.13
2023-10-22T19:30:39.196Z,100900.28
2023-10-22T19:33:07.394Z,100897.25
2023-10-22T19:35:35.744Z,100899.00
2023-10-22T19:38:04.050Z,100907.38
2023-10-22T19:40:31.720Z,100908.38
2023-10-22T19:42:59.752Z,100907.94
2023-10-22T19:45:27.608Z,100908.09
2023-10-22T19:47:55.259Z,100912.75
2023-10-22T19:50:23.635Z,100913.72
2023-10-22T19:52:54.233Z,100920.44
2023-10-22T19:55:21.801Z,100921.28
2023-10-22T19:57:50.503Z,100924.66
2023-10-22T20:00:18.301Z,100920.72
2023-10-22T20:02:45.986Z,100933.09
2023-10-22T20:05:14.318Z,100927.13
2023-10-22T20:07:42.055Z,100926.00
2023-10-22T20:10:10.100Z,100935.56
2023-10-22T20:12:38.732Z,100943.53
2023-10-22T20:15:22.809Z,100955.13
2023-10-22T20:17:50.435Z,100947.97
2023-10-22T20:20:18.809Z,100957.72
2023-10-22T20:22:47.368Z,100961.38
2023-10-22T20:25:15.899Z,100957.34
2023-10-22T20:27:43.732Z,100952.97
2023-10-22T20:30:12.697Z,100960.94
2023-10-22T20:32:41.455Z,100964.69
2023-10-22T20:35:09.735Z,100965.13
2023-10-22T20:37:41.046Z,100965.66
2023-10-22T20:40:09.587Z,100967.78
2023-10-22T20:42:37.186Z,100963.56
2023-10-22T20:45:05.684Z,100962.59
2023-10-22T20:47:33.864Z,100969.47
2023-10-22T20:50:04.583Z,100974.47
2023-10-22T20:52:33.080Z,100971.38
2023-10-22T20:55:01.335Z,100973.06
2023-10-22T20:57:30.093Z,100972.94
2023-10-22T20:59:57.873Z,100974.34
2023-10-22T21:02:26.331Z,100982.75
2023-10-22T21:04:53.937Z,100970.47
2023-10-22T21:07:22.067Z,100974.25
2023-10-22T21:09:50.219Z,100978.59
2023-10-22T21:12:17.934Z,100976.66
2023-10-22T21:14:46.001Z,100985.84
2023-10-22T21:17:14.963Z,100988.22
2023-10-22T21:19:43.007Z,100998.22
2023-10-22T21:22:10.901Z,100990.13
2023-10-22T21:24:38.825Z,100992.66
2023-10-22T21:27:07.115Z,100995.44
2023-10-22T21:29:35.000Z,100994.59
2023-10-22T21:32:02.702Z,100993.31
2023-10-22T21:34:33.595Z,100997.81
2023-10-22T21:37:01.439Z,101008.28
2023-10-22T21:39:29.219Z,101012.44
2023-10-22T21:41:57.030Z,101009.78
2023-10-22T21:44:24.964Z,101014.81
2023-10-22T21:46:52.630Z,101019.16
2023-10-22T21:49:20.213Z,101018.75
2023-10-22T21:51:47.887Z,101024.16
2023-10-22T21:54:15.509Z,101033.78
2023-10-22T21:56:43.593Z,101038.25
2023-10-22T21:59:11.704Z,101035.88
2023-10-22T22:01:39.682Z,101037.09
2023-10-22T22:04:10.218Z,101037.88
2023-10-22T22:06:38.336Z,101038.16
2023-10-22T22:09:06.713Z,101029.94
2023-10-22T22:11:34.306Z,101032.72
2023-10-22T22:14:02.357Z,101035.53
2023-10-22T22:16:29.903Z,101029.81
2023-10-22T22:18:57.555Z,101026.78
2023-10-22T22:21:25.222Z,101011.88
2023-10-22T22:23:53.385Z,101012.72
2023-10-22T22:26:24.842Z,101015.06
2023-10-22T22:28:52.751Z,101012.97
2023-10-22T22:31:20.715Z,101011.88
2023-10-22T22:33:48.353Z,101005.50
2023-10-22T22:36:16.102Z,101009.53
2023-10-22T22:38:44.532Z,101002.00
2023-10-22T22:41:12.143Z,101002.41
2023-10-22T22:43:40.225Z,101001.41
2023-10-22T22:46:08.153Z,101003.38
2023-10-22T22:48:35.754Z,100995.03
2023-10-22T22:51:03.476Z,101000.59
2023-10-22T22:53:31.467Z,100998.53
2023-10-22T22:55:59.092Z,101000.16
2023-10-22T22:58:26.760Z,101000.16
2023-10-22T23:00:54.574Z,101007.69
2023-10-22T23:03:22.274Z,100991.78
2023-10-22T23:05:51.339Z,100999.63
2023-10-22T23:08:18.960Z,101001.84
2023-10-22T23:10:46.669Z,100986.78
2023-10-22T23:13:14.724Z,100994.91
2023-10-22T23:15:43.897Z,100989.16
2023-10-22T23:18:11.669Z,100997.13
2023-10-22T23:20:39.257Z,100994.06
2023-10-22T23:23:06.861Z,100998.22
2023-10-22T23:25:34.385Z,100993.44
2023-10-22T23:28:02.020Z,100998.91
2023-10-22T23:30:29.668Z,100995.41
2023-10-22T23:32:57.514Z,100997.94
2023-10-22T23:35:25.053Z,101004.03
2023-10-22T23:37:52.611Z,101005.66
2023-10-22T23:40:20.904Z,101018.53
2023-10-22T23:42:49.004Z,101017.66
2023-10-22T23:45:17.583Z,101020.69
2023-10-22T23:47:46.143Z,101031.34
2023-10-22T23:50:13.992Z,101031.47
2023-10-22T23:52:42.020Z,101042.78
2023-10-22T23:55:09.680Z,101048.34
2023-10-22T23:57:37.380Z,101046.38
